Time;durP1;ratioP1;P1;durP2;ratioP2;P2;SDS_P1;SDS_P2;PMS_P1;PMS_P2;Temp;Humidity;BMP_temperature;BMP_pressure;BME280_temperature;BME280_humidity;BME280_pressure;Samples;Min_cycle;Max_cycle;Signal;HPM_P1;HPM_P2
2021/05/02 00:01:08;;;;;;;2.28;1.60;;;;;;;16.18;67.59;93025.44;5110244;28;20416;-43
2021/05/02 00:03:34;;;;;;;6.68;1.08;;;;;;;16.01;68.17;93028.47;5109942;28;20420;-44
2021/05/02 00:06:00;;;;;;;2.40;0.93;;;;;;;16.08;67.57;93018.47;5110163;28;20030;-45
2021/05/02 00:08:27;;;;;;;5.20;2.13;;;;;;;16.25;67.22;93026.59;5110288;28;20077;-46
2021/05/02 00:10:53;;;;;;;2.22;1.60;;;;;;;16.26;67.44;93026.00;5110230;28;20051;-46
2021/05/02 00:13:19;;;;;;;1.30;0.80;;;;;;;16.28;67.23;93023.34;5109725;28;20050;-45
2021/05/02 00:15:44;;;;;;;6.10;1.75;;;;;;;16.18;67.30;93008.00;5109772;28;20480;-44
2021/05/02 00:18:10;;;;;;;5.90;1.58;;;;;;;15.88;67.48;93015.06;5109507;28;20035;-46
2021/05/02 00:20:36;;;;;;;3.90;1.70;;;;;;;15.88;68.19;93026.22;5091897;28;20028;-46
2021/05/02 00:23:03;;;;;;;2.20;1.10;;;;;;;16.01;67.38;93016.59;5090538;28;20028;-44
2021/05/02 00:25:33;;;;;;;7.05;1.55;;;;;;;15.95;68.56;93025.31;5089257;28;20024;-44
2021/05/02 00:27:59;;;;;;;2.42;0.95;;;;;;;15.72;69.07;93009.13;5090144;28;20066;-44
2021/05/02 00:30:25;;;;;;;1.90;1.38;;;;;;;15.71;69.10;93007.69;5093942;28;20032;-43
2021/05/02 00:32:53;;;;;;;8.65;1.65;;;;;;;15.68;69.49;93008.16;5106190;28;20042;-45
2021/05/02 00:35:20;;;;;;;7.15;1.30;;;;;;;15.65;68.95;93003.75;5114360;28;20032;-44
2021/05/02 00:37:46;;;;;;;11.52;1.40;;;;;;;15.53;69.33;92998.09;5114266;28;20032;-43
2021/05/02 00:40:16;;;;;;;9.57;1.77;;;;;;;15.65;69.04;92995.41;5114232;27;20111;-42
2021/05/02 00:42:47;;;;;;;4.63;1.23;;;;;;;15.60;68.86;92990.88;5113844;28;20023;-45
2021/05/02 00:45:19;;;;;;;5.35;1.67;;;;;;;15.86;68.23;92996.19;5114184;28;20032;-43
2021/05/02 00:47:49;;;;;;;1.55;1.25;;;;;;;16.05;67.84;93009.25;5113851;28;20019;-42
2021/05/02 00:50:16;;;;;;;1.77;1.25;;;;;;;16.02;68.24;93004.91;5113661;28;20041;-43
2021/05/02 00:52:48;;;;;;;3.25;2.03;;;;;;;16.14;67.27;92988.97;5113689;28;20571;-42
2021/05/02 00:55:16;;;;;;;3.67;2.33;;;;;;;15.89;67.11;92974.78;5113402;28;20035;-47
2021/05/02 00:58:02;;;;;;;3.70;1.95;;;;;;;15.72;67.94;92972.25;5112455;28;20023;-43
2021/05/02 01:00:30;;;;;;;3.63;1.90;;;;;;;15.73;68.42;92982.03;5095877;28;20113;-43
2021/05/02 01:02:59;;;;;;;16.73;2.22;;;;;;;15.74;67.99;92973.09;5092022;28;20424;-43
2021/05/02 01:05:25;;;;;;;;;;;;;;;15.94;67.08;92976.50;5093538;28;20409;-42
2021/05/02 01:07:54;;;;;;;4.23;1.07;;;;;;;15.80;67.92;92975.56;5092938;28;20038;-42
2021/05/02 01:10:20;;;;;;;2.42;1.40;;;;;;;15.69;68.68;92970.63;5093242;28;20830;-43
2021/05/02 01:12:48;;;;;;;2.95;1.67;;;;;;;15.46;68.45;92942.66;5093183;28;20024;-46
2021/05/02 01:15:22;;;;;;;5.97;1.42;;;;;;;15.67;68.61;92945.47;5092854;28;20484;-42
2021/05/02 01:17:52;;;;;;;3.80;1.50;;;;;;;15.57;68.02;92931.59;5093239;28;20050;-44
2021/05/02 01:20:18;;;;;;;2.97;1.63;;;;;;;15.48;68.49;92926.81;5091830;28;20035;-44
2021/05/02 01:22:44;;;;;;;4.25;1.08;;;;;;;15.63;68.39;92923.66;5092800;28;20056;-45
2021/05/02 01:25:12;;;;;;;5.85;1.25;;;;;;;15.79;67.63;92929.56;5103804;28;20077;-45
2021/05/02 01:27:38;;;;;;;4.75;2.15;;;;;;;15.86;68.23;92928.63;5112754;28;20067;-45
2021/05/02 01:30:09;;;;;;;7.40;1.88;;;;;;;15.52;68.59;92918.00;5112791;27;20027;-45
2021/05/02 01:32:35;;;;;;;2.60;1.80;;;;;;;15.61;68.10;92936.72;5112721;28;20028;-45
2021/05/02 01:35:03;;;;;;;1.83;1.60;;;;;;;15.64;67.70;92927.88;5112234;28;20028;-47
2021/05/02 01:37:28;;;;;;;4.22;1.20;;;;;;;15.19;68.69;92932.47;5112121;28;20031;-45
2021/05/02 01:39:54;;;;;;;2.08;1.42;;;;;;;15.30;68.97;92927.59;5110774;28;20023;-47
2021/05/02 01:42:19;;;;;;;4.05;1.73;;;;;;;15.23;69.15;92926.44;5112480;28;20173;-44
2021/05/02 01:44:45;;;;;;;2.25;1.10;;;;;;;15.25;69.47;92929.38;5112479;28;20027;-43
2021/05/02 01:47:19;;;;;;;2.58;1.77;;;;;;;15.40;68.60;92936.66;5112414;28;20038;-47
2021/05/02 01:49:56;;;;;;;7.60;2.28;;;;;;;15.33;69.35;92929.94;5112412;28;20026;-42
2021/05/02 01:52:21;;;;;;;1.77;1.10;;;;;;;15.41;68.88;92919.34;5112316;28;20038;-43
2021/05/02 01:54:47;;;;;;;1.73;1.60;;;;;;;15.18;68.82;92919.88;5112349;28;20032;-43
2021/05/02 01:57:19;;;;;;;3.92;1.67;;;;;;;15.28;68.56;92911.50;5112516;28;20023;-46
2021/05/02 01:59:46;;;;;;;8.85;2.58;;;;;;;15.46;68.41;92909.25;5111044;28;20027;-43
2021/05/02 02:02:11;;;;;;;1.63;1.08;;;;;;;15.53;68.14;92911.09;5112074;28;20028;-47
2021/05/02 02:04:38;;;;;;;1.73;1.63;;;;;;;15.66;67.21;92916.16;5112532;28;20023;-45
2021/05/02 02:07:05;;;;;;;1.63;1.50;;;;;;;15.57;68.30;92923.22;5110949;28;20072;-45
2021/05/02 02:09:30;;;;;;;2.90;1.55;;;;;;;15.28;69.38;92928.19;5112603;28;20028;-44
2021/05/02 02:11:56;;;;;;;18.33;2.00;;;;;;;15.33;69.17;92923.66;5112286;28;20086;-43
2021/05/02 02:14:23;;;;;;;7.00;2.65;;;;;;;15.45;67.79;92924.47;5112031;28;20570;-45
2021/05/02 02:16:48;;;;;;;3.33;2.40;;;;;;;15.56;66.83;92930.13;5112109;27;20488;-45
2021/05/02 02:19:14;;;;;;;4.05;1.83;;;;;;;15.56;66.37;92926.63;5110745;28;20035;-43
2021/05/02 02:21:41;;;;;;;2.35;0.90;;;;;;;15.50;66.94;92946.44;5112172;28;20028;-46
2021/05/02 02:24:10;;;;;;;2.55;1.60;;;;;;;15.61;66.31;92967.31;5109043;28;20053;-43
2021/05/02 02:26:39;;;;;;;4.53;1.80;;;;;;;15.67;65.73;92968.47;5110795;28;20110;-43
2021/05/02 02:29:07;;;;;;;3.20;1.30;;;;;;;15.76;64.92;92967.69;5111525;27;20057;-44
2021/05/02 02:31:34;;;;;;;4.53;1.85;;;;;;;15.59;66.72;92964.41;5111906;28;20429;-42
2021/05/02 02:34:04;;;;;;;5.15;1.73;;;;;;;15.49;66.22;92969.25;5111878;28;20111;-43
2021/05/02 02:36:30;;;;;;;4.13;1.45;;;;;;;15.32;66.79;92955.53;5111477;28;20488;-45
2021/05/02 02:38:56;;;;;;;8.00;1.63;;;;;;;15.27;65.35;92951.75;5111770;28;20027;-43
2021/05/02 02:41:22;;;;;;;5.80;1.98;;;;;;;15.34;66.78;92969.59;5110168;28;20407;-44
2021/05/02 02:43:52;;;;;;;18.95;3.22;;;;;;;15.45;65.56;92953.03;5110416;28;20038;-45
2021/05/02 02:46:19;;;;;;;1.55;1.23;;;;;;;15.72;64.49;92958.31;5111612;27;20027;-45
2021/05/02 02:48:46;;;;;;;7.32;1.92;;;;;;;15.87;64.23;92964.22;5111225;28;20053;-46
2021/05/02 02:51:13;;;;;;;1.45;0.95;;;;;;;15.81;64.81;92965.88;5110560;28;20069;-44
2021/05/02 02:53:39;;;;;;;2.55;1.33;;;;;;;15.53;67.12;92950.06;5111578;27;20038;-45
2021/05/02 02:56:06;;;;;;;2.28;2.08;;;;;;;15.26;67.33;92950.31;5110047;28;20027;-45
2021/05/02 02:58:57;;;;;;;4.47;1.70;;;;;;;15.16;67.80;92953.13;5111431;28;20385;-43
2021/05/02 03:01:24;;;;;;;4.55;1.85;;;;;;;14.81;68.70;92952.03;5111199;28;20046;-45
2021/05/02 03:03:53;;;;;;;3.95;1.65;;;;;;;14.99;68.47;92938.69;5111283;28;20034;-44
2021/05/02 03:06:19;;;;;;;;;;;;;;;15.02;68.46;92946.59;5110787;28;20031;-45
2021/05/02 03:08:47;;;;;;;5.00;1.80;;;;;;;15.08;68.53;92947.00;5111174;28;20415;-46
2021/05/02 03:11:15;;;;;;;9.10;2.35;;;;;;;14.91;68.91;92954.81;5111135;28;20032;-45
2021/05/02 03:13:43;;;;;;;3.53;1.80;;;;;;;14.70;69.30;92957.50;5111049;28;20506;-43
2021/05/02 03:16:08;;;;;;;1.73;1.30;;;;;;;14.73;68.68;92951.47;5109270;28;20030;-44
2021/05/02 03:18:48;;;;;;;2.83;1.25;;;;;;;14.92;68.22;92959.06;5111152;28;20488;-43
2021/05/02 03:21:18;;;;;;;4.18;1.85;;;;;;;14.88;68.07;92928.91;5104304;28;20020;-43
2021/05/02 03:23:44;;;;;;;9.02;1.48;;;;;;;15.13;68.01;92979.34;5107210;28;20019;-44
2021/05/02 03:26:11;;;;;;;7.00;2.17;;;;;;;15.13;67.40;92984.91;5100350;28;20035;-45
2021/05/02 03:28:54;;;;;;;2.78;1.23;;;;;;;14.82;68.84;92975.75;5098670;27;20504;-44
2021/05/02 03:31:23;;;;;;;6.43;1.38;;;;;;;15.02;67.73;92968.09;5098959;28;20065;-48
2021/05/02 03:33:53;;;;;;;4.32;1.63;;;;;;;14.93;67.59;92949.38;5091801;28;20055;-46
2021/05/02 03:36:28;;;;;;;1.67;1.25;;;;;;;15.04;68.92;92965.44;5090366;28;20031;-44
2021/05/02 03:38:53;;;;;;;2.00;1.63;;;;;;;15.17;68.08;92956.63;5088814;28;20032;-45
2021/05/02 03:41:19;;;;;;;4.32;1.75;;;;;;;14.85;68.93;92969.03;5089880;28;20039;-44
2021/05/02 03:43:46;;;;;;;2.30;2.00;;;;;;;14.83;68.67;92966.09;5090250;28;20023;-45
2021/05/02 03:46:24;;;;;;;1.90;1.10;;;;;;;14.68;69.56;92963.66;5090129;28;20051;-45
2021/05/02 03:49:04;;;;;;;8.80;2.90;;;;;;;14.77;69.45;92957.31;5090319;28;20043;-45
2021/05/02 03:51:32;;;;;;;5.97;2.22;;;;;;;14.79;70.06;92978.97;5089818;28;20130;-46
2021/05/02 03:53:58;;;;;;;5.70;1.40;;;;;;;14.97;69.20;92978.19;5090133;28;20047;-45
2021/05/02 03:56:41;;;;;;;2.33;2.05;;;;;;;15.15;68.11;92959.28;5089968;28;20463;-44
2021/05/02 03:59:14;;;;;;;5.18;2.38;;;;;;;15.30;69.41;92974.88;5089670;28;20510;-44
2021/05/02 04:01:43;;;;;;;5.00;1.52;;;;;;;15.26;69.30;92974.59;5089805;28;20093;-44
2021/05/02 04:04:13;;;;;;;3.45;2.03;;;;;;;15.12;68.91;92963.97;5090082;28;20546;-44
2021/05/02 04:06:39;;;;;;;7.85;2.30;;;;;;;15.25;68.87;92970.34;5090112;28;20020;-45
2021/05/02 04:09:06;;;;;;;4.30;1.27;;;;;;;15.27;68.62;92970.50;5090020;28;20493;-45
2021/05/02 04:11:31;;;;;;;1.70;1.60;;;;;;;15.46;68.74;92965.63;5089805;28;20072;-44
2021/05/02 04:14:00;;;;;;;6.78;1.52;;;;;;;15.42;68.27;92956.97;5090029;28;20454;-45
2021/05/02 04:16:25;;;;;;;3.70;2.05;;;;;;;15.77;68.21;92951.69;5088957;28;20475;-44
2021/05/02 04:18:51;;;;;;;1.85;1.38;;;;;;;15.92;67.43;92949.25;5110336;28;20012;-45
2021/05/02 04:21:16;;;;;;;2.25;1.35;;;;;;;16.02;68.69;92959.59;5106736;28;20111;-43
2021/05/02 04:23:42;;;;;;;5.15;2.50;;;;;;;16.07;67.43;92959.25;5089565;28;20453;-44
2021/05/02 04:26:07;;;;;;;3.38;2.58;;;;;;;16.04;67.45;92935.41;5088564;28;20024;-46
2021/05/02 04:28:33;;;;;;;11.38;3.90;;;;;;;16.29;67.83;92974.66;5089332;28;20048;-46
2021/05/02 04:30:58;;;;;;;5.25;2.88;;;;;;;16.19;67.39;92970.47;5089678;28;20035;-43
2021/05/02 04:33:24;;;;;;;5.93;3.65;;;;;;;16.32;67.05;92953.22;5089339;28;20024;-46
2021/05/02 04:35:49;;;;;;;3.35;2.08;;;;;;;16.39;66.99;92969.75;5089726;28;20023;-45
2021/05/02 04:38:15;;;;;;;2.03;1.58;;;;;;;16.24;66.72;92966.63;5089577;28;20570;-45
2021/05/02 04:40:40;;;;;;;3.70;2.10;;;;;;;16.32;67.54;92961.59;5089532;28;20493;-46
2021/05/02 04:43:05;;;;;;;10.38;2.55;;;;;;;16.63;67.34;92953.88;5089600;28;20481;-43
2021/05/02 04:45:31;;;;;;;1.45;1.10;;;;;;;17.12;66.94;92952.81;5089270;28;20128;-43
2021/05/02 04:47:56;;;;;;;4.97;2.17;;;;;;;17.43;63.97;92949.81;5089469;28;20031;-43
2021/05/02 04:50:22;;;;;;;6.78;2.13;;;;;;;17.61;63.77;92944.59;5088187;28;20657;-45
2021/05/02 04:52:47;;;;;;;7.38;2.80;;;;;;;17.73;63.73;92959.31;5087461;28;20509;-44
2021/05/02 04:55:13;;;;;;;8.73;4.55;;;;;;;17.93;61.55;92943.75;5089050;28;20020;-45
2021/05/02 04:57:38;;;;;;;7.93;4.38;;;;;;;18.04;62.69;92940.91;5089500;28;20027;-45
2021/05/02 05:00:06;;;;;;;6.25;3.50;;;;;;;17.99;62.00;92953.22;5089099;28;20386;-45
2021/05/02 05:02:32;;;;;;;15.15;3.15;;;;;;;18.12;62.50;92957.44;5097918;28;20078;-45
2021/05/02 05:04:57;;;;;;;7.03;4.07;;;;;;;18.13;62.49;92923.28;5109347;28;20094;-43
2021/05/02 05:07:22;;;;;;;5.93;3.17;;;;;;;18.64;61.90;92954.16;5109186;28;20026;-43
2021/05/02 05:09:48;;;;;;;3.92;2.72;;;;;;;18.78;60.28;92963.34;5109618;28;20035;-43
2021/05/02 05:12:13;;;;;;;1.95;1.75;;;;;;;18.95;59.00;92968.47;5109607;28;20484;-43
2021/05/02 05:14:39;;;;;;;4.30;2.05;;;;;;;19.17;59.63;92958.50;5093873;28;20564;-44
2021/05/02 05:17:04;;;;;;;2.53;2.08;;;;;;;19.51;56.90;92960.38;5092611;28;20043;-44
2021/05/02 05:19:30;;;;;;;3.10;2.17;;;;;;;19.93;55.64;92959.09;5095437;28;20139;-44
2021/05/02 05:21:55;;;;;;;12.55;4.93;;;;;;;20.29;56.24;92960.97;5101454;28;20031;-45
2021/05/02 05:24:20;;;;;;;6.35;3.80;;;;;;;20.59;56.31;92942.13;5104115;28;20072;-44
2021/05/02 05:26:46;;;;;;;3.90;2.92;;;;;;;21.02;55.09;92934.41;5102029;28;20016;-47
2021/05/02 05:29:11;;;;;;;4.53;2.35;;;;;;;21.33;52.89;92927.41;5103286;28;20016;-48
2021/05/02 05:31:37;;;;;;;11.50;1.50;;;;;;;21.80;51.31;92920.44;5101400;28;20016;-45
2021/05/02 05:34:02;;;;;;;9.32;2.00;;;;;;;22.09;51.09;92913.97;5102292;28;20027;-43
2021/05/02 05:36:28;;;;;;;2.58;1.33;;;;;;;22.14;50.69;92904.38;5103039;28;20027;-49
2021/05/02 05:38:53;;;;;;;2.42;1.75;;;;;;;22.35;50.96;92889.09;5099804;28;20160;-49
2021/05/02 05:41:18;;;;;;;7.47;2.20;;;;;;;22.65;49.66;92889.63;5103451;28;20069;-46
2021/05/02 05:43:44;;;;;;;4.78;1.33;;;;;;;22.60;49.70;92897.91;5104991;28;20050;-46
2021/05/02 05:46:13;;;;;;;7.43;1.77;;;;;;;22.64;48.79;92908.59;5101229;28;20022;-47
2021/05/02 05:48:40;;;;;;;5.53;1.70;;;;;;;22.43;49.67;92909.09;5101433;28;20016;-46
2021/05/02 05:51:07;;;;;;;15.93;2.80;;;;;;;22.61;48.70;92918.31;5108747;28;20016;-49
2021/05/02 05:53:33;;;;;;;10.88;2.40;;;;;;;22.88;48.00;92928.53;5100659;28;20058;-47
2021/05/02 05:55:58;;;;;;;4.70;1.27;;;;;;;22.95;48.35;92933.78;5102968;28;20020;-46
2021/05/02 05:58:24;;;;;;;12.63;1.85;;;;;;;23.21;47.13;92931.28;5108864;28;20068;-47
2021/05/02 06:00:50;;;;;;;3.05;1.45;;;;;;;23.34;45.39;92924.78;5112370;28;20027;-47
2021/05/02 06:03:15;;;;;;;2.97;1.33;;;;;;;23.69;44.04;92927.50;5102725;28;20088;-46
2021/05/02 06:05:40;;;;;;;7.72;2.63;;;;;;;24.03;42.54;92925.25;5094180;28;20482;-49
2021/05/02 06:08:06;;;;;;;2.95;2.28;;;;;;;24.34;41.15;92915.78;5110645;28;20476;-43
2021/05/02 06:10:31;;;;;;;9.65;0.90;;;;;;;24.88;39.67;92926.13;5110689;28;20446;-48
2021/05/02 06:12:57;;;;;;;8.05;1.65;;;;;;;25.30;38.59;92921.81;5101158;28;20038;-44
2021/05/02 06:15:23;;;;;;;3.60;1.90;;;;;;;25.47;37.92;92929.44;5103994;28;20084;-49
2021/05/02 06:17:48;;;;;;;3.08;1.40;;;;;;;25.65;35.95;92912.28;5112391;28;20104;-46
2021/05/02 06:20:14;;;;;;;4.78;2.15;;;;;;;25.69;37.01;92915.25;5112424;28;20051;-49
2021/05/02 06:22:39;;;;;;;2.80;1.55;;;;;;;26.39;36.30;92919.38;5108987;28;20032;-46
2021/05/02 06:25:07;;;;;;;3.72;2.05;;;;;;;27.15;34.33;92920.66;5099910;28;20035;-46
2021/05/02 06:27:32;;;;;;;9.48;1.92;;;;;;;27.63;32.68;92921.09;5099909;28;20584;-49
2021/05/02 06:29:58;;;;;;;3.45;1.83;;;;;;;27.73;32.51;92919.19;5091490;28;20020;-46
2021/05/02 06:32:23;;;;;;;5.72;1.33;;;;;;;27.34;33.24;92916.13;5105207;28;20405;-48
2021/05/02 06:34:52;;;;;;;9.52;2.63;;;;;;;27.17;33.73;92912.19;5111769;28;20023;-46
2021/05/02 06:37:17;;;;;;;1.25;1.10;;;;;;;27.32;33.49;92910.41;5105061;28;20062;-47
2021/05/02 06:39:42;;;;;;;2.83;1.25;;;;;;;27.27;33.01;92911.69;5090985;28;20024;-49
2021/05/02 06:42:08;;;;;;;14.45;2.60;;;;;;;27.08;33.67;92918.31;5090695;28;20035;-46
2021/05/02 06:44:34;;;;;;;6.22;1.10;;;;;;;26.87;33.33;92925.63;5090695;28;20054;-46
2021/05/02 06:46:59;;;;;;;5.55;1.70;;;;;;;27.12;32.94;92926.94;5090694;28;20045;-47
2021/05/02 06:49:25;;;;;;;4.82;1.30;;;;;;;27.66;34.82;92914.03;5106735;28;20027;-46
2021/05/02 06:51:52;;;;;;;2.15;1.30;;;;;;;28.02;32.39;92920.56;5093324;28;20047;-45
2021/05/02 06:54:17;;;;;;;3.13;1.10;;;;;;;27.94;33.81;92923.16;5090889;28;20081;-46
2021/05/02 06:56:43;;;;;;;2.70;1.20;;;;;;;28.23;31.87;92921.66;5090710;28;20063;-47
2021/05/02 06:59:09;;;;;;;9.38;1.92;;;;;;;28.95;33.08;92928.75;5109586;28;20062;-45
2021/05/02 07:01:35;;;;;;;3.40;1.75;;;;;;;29.66;30.91;92929.91;5091966;28;20523;-48
2021/05/02 07:04:00;;;;;;;8.98;1.70;;;;;;;29.72;29.31;92927.88;5088496;28;20020;-46
2021/05/02 07:06:26;;;;;;;3.22;1.60;;;;;;;29.72;28.66;92918.63;5088153;28;20032;-46
2021/05/02 07:08:52;;;;;;;1.65;1.10;;;;;;;30.00;29.33;92901.94;5088169;28;20023;-48
2021/05/02 07:11:18;;;;;;;3.92;1.27;;;;;;;30.12;28.89;92907.09;5088500;28;20020;-48
2021/05/02 07:13:43;;;;;;;2.88;1.13;;;;;;;30.51;28.21;92900.47;5092919;28;20861;-51
2021/05/02 07:16:10;;;;;;;1.05;0.98;;;;;;;30.79;26.66;92875.13;5096998;28;20035;-49
2021/05/02 07:18:37;;;;;;;2.65;1.58;;;;;;;31.17;29.56;92894.72;5096929;28;20024;-47
2021/05/02 07:21:04;;;;;;;12.90;1.55;;;;;;;31.24;28.15;92894.09;5098843;28;20643;-47
2021/05/02 07:23:31;;;;;;;9.23;2.15;;;;;;;31.37;27.74;92909.16;5097424;28;20084;-49
2021/05/02 07:25:56;;;;;;;1.83;1.33;;;;;;;31.74;25.99;92916.59;5090528;28;20032;-46
2021/05/02 07:28:22;;;;;;;9.18;1.98;;;;;;;32.07;27.73;92920.41;5092521;28;20040;-48
2021/05/02 07:30:48;;;;;;;2.88;1.17;;;;;;;32.80;25.91;92918.56;5106009;28;20423;-47
2021/05/02 07:33:14;;;;;;;3.40;1.48;;;;;;;33.57;25.75;92917.28;5108220;28;20030;-45
2021/05/02 07:35:40;;;;;;;4.38;1.92;;;;;;;34.20;22.87;92912.19;5106888;28;20058;-46
2021/05/02 07:38:06;;;;;;;4.65;1.33;;;;;;;34.46;23.37;92917.13;5100075;28;20028;-48
2021/05/02 07:40:31;;;;;;;7.03;2.03;;;;;;;35.17;20.87;92922.56;5096125;28;20738;-48
2021/05/02 07:42:57;;;;;;;8.65;2.03;;;;;;;36.06;20.99;92916.84;5107368;28;20435;-47
2021/05/02 07:45:22;;;;;;;11.30;1.80;;;;;;;35.78;20.12;92926.41;5108063;28;20075;-52
2021/05/02 07:47:48;;;;;;;5.38;1.73;;;;;;;34.84;20.08;92927.75;5107489;28;20484;-48
2021/05/02 07:50:13;;;;;;;7.35;1.15;;;;;;;34.11;20.94;92945.16;5101820;28;20028;-48
2021/05/02 07:52:41;;;;;;;4.53;1.08;;;;;;;32.86;22.54;92944.31;5101894;28;20058;-49
2021/05/02 07:55:07;;;;;;;6.20;3.33;;;;;;;32.49;22.33;92966.34;5107588;28;20114;-48
2021/05/02 07:57:32;;;;;;;10.65;7.18;;;;;;;31.69;23.30;92965.78;5107956;28;20115;-48
2021/05/02 07:59:59;;;;;;;4.07;2.08;;;;;;;31.78;25.05;92965.16;5099609;28;20101;-49
2021/05/02 08:02:25;;;;;;;4.25;1.23;;;;;;;31.97;23.89;92980.28;5094277;28;20493;-48
2021/05/02 08:04:50;;;;;;;4.40;1.38;;;;;;;31.75;23.50;92974.41;5098857;28;20042;-48
2021/05/02 08:07:16;;;;;;;8.05;2.80;;;;;;;31.62;24.62;92985.00;5089162;28;20043;-46
2021/05/02 08:09:41;;;;;;;5.32;1.50;;;;;;;31.26;25.78;92976.81;5086837;28;20032;-46
2021/05/02 08:12:09;;;;;;;5.60;1.73;;;;;;;31.21;26.39;92983.91;5086787;28;20020;-47
2021/05/02 08:14:34;;;;;;;5.05;1.73;;;;;;;30.98;25.72;92979.38;5087842;28;20024;-45
2021/05/02 08:17:00;;;;;;;2.92;1.85;;;;;;;30.80;24.52;92984.16;5087349;28;20027;-45
2021/05/02 08:19:26;;;;;;;3.45;1.80;;;;;;;30.48;25.48;92988.03;5087274;28;20077;-47
2021/05/02 08:21:52;;;;;;;4.65;2.03;;;;;;;30.18;26.94;92989.75;5094192;28;20051;-48
2021/05/02 08:24:17;;;;;;;4.78;1.52;;;;;;;30.10;28.05;92992.50;5091687;28;20054;-46
2021/05/02 08:26:43;;;;;;;5.85;2.75;;;;;;;30.22;27.79;92989.78;5098046;28;20028;-48
2021/05/02 08:29:09;;;;;;;3.72;1.50;;;;;;;30.03;27.04;92988.84;5087571;28;20051;-49
2021/05/02 08:31:35;;;;;;;6.60;1.45;;;;;;;29.92;28.33;92998.63;5087855;28;20056;-46
2021/05/02 08:34:00;;;;;;;8.80;1.45;;;;;;;29.50;29.13;92992.97;5087696;28;20020;-44
2021/05/02 08:36:26;;;;;;;7.28;1.63;;;;;;;29.46;29.87;92978.69;5088078;28;20028;-48
2021/05/02 08:38:52;;;;;;;2.65;1.08;;;;;;;29.68;30.25;92995.38;5088597;28;20031;-46
2021/05/02 08:41:17;;;;;;;6.07;1.75;;;;;;;29.76;29.52;92999.09;5107338;28;20030;-46
2021/05/02 08:43:43;;;;;;;4.38;1.20;;;;;;;29.58;29.43;93004.50;5107693;28;20039;-50
2021/05/02 08:46:11;;;;;;;3.15;1.38;;;;;;;29.57;31.47;93005.88;5106442;28;20024;-45
2021/05/02 08:48:37;;;;;;;3.45;2.15;;;;;;;29.47;30.35;93017.09;5107267;28;20426;-46
2021/05/02 08:51:02;;;;;;;4.47;2.10;;;;;;;29.24;31.14;93021.69;5111341;28;20050;-48
2021/05/02 08:53:28;;;;;;;8.23;3.53;;;;;;;29.53;31.43;93011.50;5111308;28;20019;-48
2021/05/02 08:55:54;;;;;;;5.07;2.08;;;;;;;29.50;30.92;93009.34;5107637;28;20020;-46
2021/05/02 08:58:21;;;;;;;3.78;1.15;;;;;;;29.66;31.93;93018.13;5098328;27;20028;-45
2021/05/02 09:00:48;;;;;;;5.57;2.17;;;;;;;29.61;32.23;93033.69;5090871;28;20032;-47
2021/05/02 09:03:13;;;;;;;2.90;1.63;;;;;;;29.73;31.03;93020.38;5105862;28;20031;-48
2021/05/02 09:05:57;;;;;;;4.47;1.30;;;;;;;29.53;30.89;93016.47;5111050;28;20032;-46
2021/05/02 09:08:30;;;;;;;3.72;1.25;;;;;;;29.68;31.31;93018.88;5111535;28;20026;-47
2021/05/02 09:10:56;;;;;;;1.98;1.55;;;;;;;29.70;27.19;93012.50;5111668;27;20023;-46
2021/05/02 09:13:21;;;;;;;4.18;1.35;;;;;;;30.59;28.03;93035.22;5110727;28;20408;-47
2021/05/02 09:16:01;;;;;;;3.47;1.33;;;;;;;30.96;26.89;93022.13;5108097;28;20113;-44
2021/05/02 09:18:45;;;;;;;5.32;1.67;;;;;;;31.81;26.20;93017.28;5111019;28;20280;-48
2021/05/02 09:21:27;;;;;;;5.70;2.65;;;;;;;32.62;26.29;93001.41;5110891;28;20403;-45
2021/05/02 09:23:54;;;;;;;4.80;1.38;;;;;;;33.44;24.10;92987.38;5108924;27;20075;-46
2021/05/02 09:26:32;;;;;;;2.58;1.23;;;;;;;34.00;22.97;92986.69;5090183;28;20027;-48
2021/05/02 09:29:02;;;;;;;5.30;1.45;;;;;;;34.14;22.90;92989.56;5089991;28;20043;-47
2021/05/02 09:31:34;;;;;;;1.70;0.98;;;;;;;35.10;22.18;92987.88;5089320;28;20114;-47
2021/05/02 09:34:15;;;;;;;1.65;1.17;;;;;;;36.38;22.34;92986.25;5094881;28;20516;-45
2021/05/02 09:37:00;;;;;;;6.05;1.25;;;;;;;36.99;20.57;92985.59;5099926;28;20032;-47
2021/05/02 09:39:50;;;;;;;4.38;1.67;;;;;;;38.03;19.31;92971.19;5090090;28;20024;-46
2021/05/02 09:42:17;;;;;;;4.28;1.17;;;;;;;38.66;17.99;92972.19;5101249;28;20115;-47
2021/05/02 09:44:48;;;;;;;3.47;1.45;;;;;;;39.55;18.30;92981.94;5097935;28;20027;-47
2021/05/02 09:47:36;;;;;;;4.43;1.42;;;;;;;39.79;16.50;92974.91;5110246;27;20062;-47
2021/05/02 09:50:05;;;;;;;4.40;1.17;;;;;;;40.23;16.55;92962.28;5110346;28;20024;-44
2021/05/02 09:52:57;;;;;;;4.75;1.35;;;;;;;40.62;15.17;92962.03;5110245;28;20379;-44
2021/05/02 09:55:36;;;;;;;4.85;1.90;;;;;;;40.42;15.91;92974.13;5110015;27;20031;-47
2021/05/02 09:58:07;;;;;;;3.33;1.33;;;;;;;40.76;15.55;92962.34;5107086;28;20096;-45
2021/05/02 10:00:42;;;;;;;5.43;1.00;;;;;;;40.97;14.68;92968.31;5089761;28;20028;-45
2021/05/02 10:03:19;;;;;;;7.13;3.55;;;;;;;40.82;16.42;92967.25;5089693;28;20027;-46
2021/05/02 10:05:58;;;;;;;8.65;2.63;;;;;;;41.03;15.37;92961.63;5089965;28;20417;-45
2021/05/02 10:08:29;;;;;;;5.65;3.08;;;;;;;41.18;15.15;92948.88;5089909;28;20050;-47
2021/05/02 10:10:55;;;;;;;5.88;1.92;;;;;;;41.29;14.38;92943.50;5089703;28;20459;-48
2021/05/02 10:13:21;;;;;;;6.40;1.45;;;;;;;41.62;14.02;92946.13;5089412;28;20614;-47
2021/05/02 10:15:47;;;;;;;4.00;1.17;;;;;;;41.20;13.79;92939.41;5087890;28;20114;-47
2021/05/02 10:18:13;;;;;;;10.98;2.75;;;;;;;40.83;14.23;92933.94;5089584;28;20036;-47
2021/05/02 10:20:43;;;;;;;5.78;2.53;;;;;;;40.81;14.48;92939.78;5100773;28;20036;-47
2021/05/02 10:23:08;;;;;;;2.92;0.98;;;;;;;40.61;14.17;92938.16;5109847;28;20038;-47
2021/05/02 10:25:36;;;;;;;1.25;0.77;;;;;;;40.40;13.43;92939.44;5093374;28;20024;-46
2021/05/02 10:28:01;;;;;;;4.00;1.70;;;;;;;40.73;15.49;92937.81;5088737;28;20044;-47
2021/05/02 10:30:32;;;;;;;5.10;1.92;;;;;;;40.68;14.19;92930.72;5094944;28;20031;-50
2021/05/02 10:33:13;;;;;;;3.03;1.80;;;;;;;41.30;14.13;92927.56;5097487;28;20131;-47
2021/05/02 10:35:52;;;;;;;3.72;1.70;;;;;;;40.83;15.59;92927.47;5098849;27;20041;-48
2021/05/02 10:38:23;;;;;;;4.63;1.98;;;;;;;41.28;13.90;92921.81;5094502;28;20151;-46
2021/05/02 10:40:49;;;;;;;6.88;1.45;;;;;;;41.22;14.34;92919.06;5096061;28;20772;-47
2021/05/02 10:43:30;;;;;;;4.13;1.92;;;;;;;40.17;16.10;92929.91;5098467;28;20055;-48
2021/05/02 10:45:56;;;;;;;3.67;1.38;;;;;;;40.32;15.18;92920.13;5099014;28;20023;-48
2021/05/02 10:48:21;;;;;;;3.58;1.17;;;;;;;40.55;14.92;92906.47;5097193;28;20008;-46
2021/05/02 10:50:49;;;;;;;3.40;1.58;;;;;;;40.56;15.02;92913.00;5097539;27;20054;-48
2021/05/02 10:53:16;;;;;;;3.72;1.52;;;;;;;40.33;14.64;92920.84;5098675;28;20027;-47
2021/05/02 10:55:52;;;;;;;3.20;1.33;;;;;;;40.93;14.44;92907.63;5099382;28;20023;-46
2021/05/02 10:58:20;;;;;;;3.17;0.90;;;;;;;40.96;14.72;92917.66;5101829;28;20024;-50
2021/05/02 11:00:52;;;;;;;3.75;1.08;;;;;;;40.23;14.86;92923.97;5097448;28;20020;-50
2021/05/02 11:03:38;;;;;;;2.60;1.05;;;;;;;40.24;13.26;92911.66;5097695;28;20023;-49
2021/05/02 11:06:04;;;;;;;4.28;0.90;;;;;;;40.25;14.77;92913.06;5097463;28;20020;-50
2021/05/02 11:08:59;;;;;;;3.97;0.80;;;;;;;39.40;15.37;92923.06;5096888;28;20020;-48
2021/05/02 11:14:26;;;;;;;4.43;2.63;;;;;;;38.84;15.52;92924.25;5096474;28;20504;-47
2021/05/02 11:16:54;;;;;;;2.35;1.13;;;;;;;37.53;16.04;92915.03;5096353;28;20028;-50
2021/05/02 11:19:20;;;;;;;2.17;1.08;;;;;;;38.25;15.13;92921.81;5096750;28;20076;-48
2021/05/02 11:22:01;;;;;;;6.13;1.33;;;;;;;37.44;16.25;92917.34;5099587;28;20084;-50
2021/05/02 11:24:51;;;;;;;2.88;1.55;;;;;;;37.13;17.65;92896.16;5096858;28;20081;-49
2021/05/02 11:32:30;;;;;;;2.47;0.80;;;;;;;36.59;17.32;92891.84;5095955;28;20535;-48
2021/05/02 11:35:02;;;;;;;4.82;0.82;;;;;;;36.26;17.41;92887.88;5098228;28;20035;-46
2021/05/02 11:37:56;;;;;;;2.53;1.27;;;;;;;35.67;19.76;92891.31;5096445;28;20023;-45
2021/05/02 11:40:28;;;;;;;2.78;1.00;;;;;;;35.26;16.99;92878.72;5096046;28;20084;-46
2021/05/02 11:42:57;;;;;;;3.05;1.48;;;;;;;34.53;18.35;92877.69;5087720;28;20043;-49
2021/05/02 11:45:24;;;;;;;12.68;1.98;;;;;;;34.65;21.42;92871.91;5087959;28;20031;-48
2021/05/02 11:47:50;;;;;;;5.50;1.83;;;;;;;34.60;19.77;92899.88;5094704;28;20068;-42